Coral Sapphire — 3EFA5 — position and weather

sailwx.info

Track history (hours):
 
Tides and Currents Weather Stations Pressure Air Temp Water Temp Dewpoint Dewpoint Depression Visibility Wind Speed Wind Dir Waves Ship Positions

Coral Sapphire

Last reported at 2017-Sep-22 01:58 UTC. Time now 2017-Sep-23 00:27 UTC.
Position S 33°14' E 152°12'.

Length 225 m; draft 6.9 m.

Type: Cargo ship. MMSI: 371979000.

Date/timePositionNaut miles runAvg speedWind from/ knotsBaromVisibWave heightAir tempDewpointWater temp
2017-Sep-22 01:58S 33°14' E 152°12'0 0.6
2017-Sep-22 01:28S 33°14' E 152°12'0 0.6
2017-Sep-22 00:58S 33°14' E 152°12'0 0.7
2017-Sep-22 00:28S 33°13' E 152°12'0 1.0
2017-Sep-22 00:00S 33°13' E 152°12'5 9.2
2017-Sep-21 23:30S 33°08' E 152°12'4 9.0
2017-Sep-21 23:00S 33°04' E 152°13'510.7
2017-Sep-21 22:30S 32°59' E 152°14'510.8
2017-Sep-21 22:00S 32°53' E 152°16'510.9
2017-Sep-21 21:30S 32°49' E 152°19'611.1
2017-Sep-21 21:00S 32°45' E 152°24'611.1
2017-Sep-21 20:30S 32°42' E 152°29'510.9
2017-Sep-21 20:00S 32°39' E 152°35'510.7
2017-Sep-21 19:30S 32°35' E 152°39'711.1
2017-Sep-21 18:54S 32°30' E 152°45'411.1
2017-Sep-21 18:30S 32°26' E 152°46'611.5
2017-Sep-21 18:00S 32°21' E 152°48'510.9
2017-Sep-21 17:30S 32°16' E 152°50'510.6
2017-Sep-21 17:00S 32°11' E 152°52'610.7
2017-Sep-21 16:26S 32°05' E 152°54'510.8
2017-Sep-21 16:00S 32°00' E 152°56'611.0
2017-Sep-21 15:30S 31°55' E 152°58'611.4
2017-Sep-21 14:59S 31°49' E 152°60'18211.8
2017-Sep-20 23:33S 28°52' E 153°45'111.9
2017-Sep-20 23:27S 28°51' E 153°45'512.0
2017-Sep-20 23:00S 28°46' E 153°46'611.7
2017-Sep-20 22:30S 28°40' E 153°48'611.5
2017-Sep-20 22:00S 28°34' E 153°48'510.8
2017-Sep-20 21:30S 28°29' E 153°48'610.6
2017-Sep-20 20:59S 28°23' E 153°48'510.4
2017-Sep-20 20:30S 28°18' E 153°48'510.3
2017-Sep-20 20:00S 28°13' E 153°49'510.2
2017-Sep-20 19:30S 28°08' E 153°49'510.3
2017-Sep-20 18:59S 28°03' E 153°49'510.5
2017-Sep-20 18:30S 27°58' E 153°49'510.4
2017-Sep-20 18:00S 27°52' E 153°48'510.3
2017-Sep-20 17:30S 27°47' E 153°48'510.1
2017-Sep-20 17:00S 27°42' E 153°48'510.1
2017-Sep-20 16:30S 27°37' E 153°48'5 9.8
2017-Sep-20 15:59S 27°32' E 153°48'2510.0
2017-Sep-20 13:27S 27°07' E 153°48'410.2
2017-Sep-20 13:00S 27°02' E 153°49'  
Track history (hours):
 
Tides and Currents Weather Stations Pressure Air Temp Water Temp Dewpoint Dewpoint Depression Visibility Wind Speed Wind Dir Waves Ship Positions

Coral Sapphire

Last reported at 2017-Sep-22 01:58 UTC. Time now 2017-Sep-23 00:27 UTC.
Position S 33°14' E 152°12'.

Length 225 m; draft 6.9 m.

Type: Cargo ship. MMSI: 371979000.

Date/timePositionNaut miles runAvg speedWind from/ knotsBaromVisibWave heightAir tempDewpointWater temp
2017-Sep-22 01:58S 33°14' E 152°12'0 0.6
2017-Sep-22 01:28S 33°14' E 152°12'0 0.6
2017-Sep-22 00:58S 33°14' E 152°12'0 0.7
2017-Sep-22 00:28S 33°13' E 152°12'0 1.0
2017-Sep-22 00:00S 33°13' E 152°12'5 9.2
2017-Sep-21 23:30S 33°08' E 152°12'4 9.0
2017-Sep-21 23:00S 33°04' E 152°13'510.7
2017-Sep-21 22:30S 32°59' E 152°14'510.8
2017-Sep-21 22:00S 32°53' E 152°16'510.9
2017-Sep-21 21:30S 32°49' E 152°19'611.1
2017-Sep-21 21:00S 32°45' E 152°24'611.1
2017-Sep-21 20:30S 32°42' E 152°29'510.9
2017-Sep-21 20:00S 32°39' E 152°35'510.7
2017-Sep-21 19:30S 32°35' E 152°39'711.1
2017-Sep-21 18:54S 32°30' E 152°45'411.1
2017-Sep-21 18:30S 32°26' E 152°46'611.5
2017-Sep-21 18:00S 32°21' E 152°48'510.9
2017-Sep-21 17:30S 32°16' E 152°50'510.6
2017-Sep-21 17:00S 32°11' E 152°52'610.7
2017-Sep-21 16:26S 32°05' E 152°54'510.8
2017-Sep-21 16:00S 32°00' E 152°56'611.0
2017-Sep-21 15:30S 31°55' E 152°58'611.4
2017-Sep-21 14:59S 31°49' E 152°60'18211.8
2017-Sep-20 23:33S 28°52' E 153°45'111.9
2017-Sep-20 23:27S 28°51' E 153°45'512.0
2017-Sep-20 23:00S 28°46' E 153°46'611.7
2017-Sep-20 22:30S 28°40' E 153°48'611.5
2017-Sep-20 22:00S 28°34' E 153°48'510.8
2017-Sep-20 21:30S 28°29' E 153°48'610.6
2017-Sep-20 20:59S 28°23' E 153°48'510.4
2017-Sep-20 20:30S 28°18' E 153°48'510.3
2017-Sep-20 20:00S 28°13' E 153°49'510.2
2017-Sep-20 19:30S 28°08' E 153°49'510.3
2017-Sep-20 18:59S 28°03' E 153°49'510.5
2017-Sep-20 18:30S 27°58' E 153°49'510.4
2017-Sep-20 18:00S 27°52' E 153°48'510.3
2017-Sep-20 17:30S 27°47' E 153°48'510.1
2017-Sep-20 17:00S 27°42' E 153°48'510.1
2017-Sep-20 16:30S 27°37' E 153°48'5 9.8
2017-Sep-20 15:59S 27°32' E 153°48'2510.0
2017-Sep-20 13:27S 27°07' E 153°48'410.2
2017-Sep-20 13:00S 27°02' E 153°49'  

Dump ship's entire track history